Time;durP1;ratioP1;P1;durP2;ratioP2;P2;SDS_P1;SDS_P2;PMS_P1;PMS_P2;Temp;Humidity;BMP_temperature;BMP_pressure;BME280_temperature;BME280_humidity;BME280_pressure;Samples;Min_cycle;Max_cycle;Signal;HPM_P1;HPM_P2
2022/09/20 00:02:10;;;;;;;1.40;1.30;;;;;9.20;97291.20;;;;111098;1248;41139;-60
2022/09/20 00:04:41;;;;;;;1.40;1.30;;;;;9.22;97286.00;;;;111049;1248;41165;-60
2022/09/20 00:07:11;;;;;;;2.60;1.40;;;;;9.24;97290.20;;;;111025;1248;42310;-60
2022/09/20 00:09:42;;;;;;;1.60;1.40;;;;;9.20;97290.60;;;;111040;1247;42458;-60
2022/09/20 00:12:13;;;;;;;4.50;1.60;;;;;9.20;97291.00;;;;111072;1248;41149;-61
2022/09/20 00:14:43;;;;;;;1.40;1.30;;;;;9.20;97288.80;;;;111053;1248;41769;-60
2022/09/20 00:17:14;;;;;;;1.50;1.30;;;;;9.10;97286.60;;;;111034;1247;42389;-61
2022/09/20 00:19:45;;;;;;;2.30;1.40;;;;;9.10;97287.20;;;;111063;1248;41332;-60
2022/09/20 00:22:16;;;;;;;1.30;1.20;;;;;9.10;97285.80;;;;111121;1247;41794;-60
2022/09/20 00:24:46;;;;;;;1.30;1.20;;;;;9.00;97288.80;;;;111070;1247;41153;-60
2022/09/20 00:27:17;;;;;;;1.90;1.30;;;;;9.00;97286.40;;;;110992;1249;41140;-60
2022/09/20 00:29:49;;;;;;;1.40;1.30;;;;;9.00;97281.20;;;;111047;1248;41973;-60
2022/09/20 00:32:20;;;;;;;1.80;1.40;;;;;9.00;97279.20;;;;111050;1249;41946;-62
2022/09/20 00:35:07;;;;;;;1.80;1.30;;;;;9.00;97282.40;;;;111081;1247;41156;-61
2022/09/20 00:37:40;;;;;;;1.30;1.20;;;;;9.00;97279.20;;;;111115;1248;41269;-58
2022/09/20 00:40:14;;;;;;;2.60;1.30;;;;;8.94;97282.60;;;;111044;1249;41198;-58
2022/09/20 00:42:45;;;;;;;1.30;1.20;;;;;8.94;97283.20;;;;111046;1247;41436;-60
2022/09/20 00:45:26;;;;;;;1.50;1.30;;;;;8.92;97282.80;;;;110751;1249;41155;-60
2022/09/20 00:48:11;;;;;;;1.30;1.20;;;;;8.94;97281.60;;;;111111;1247;41156;-60
2022/09/20 00:51:08;;;;;;;1.50;1.20;;;;;9.00;97279.20;;;;111039;1247;41613;-60
2022/09/20 00:53:43;;;;;;;1.30;1.20;;;;;9.00;97277.60;;;;110881;1250;41721;-60
2022/09/20 00:56:22;;;;;;;1.10;1.10;;;;;9.00;97277.20;;;;111060;1248;41143;-60
2022/09/20 00:59:22;;;;;;;1.40;1.20;;;;;9.04;97278.40;;;;111083;1248;41141;-61
2022/09/20 01:01:57;;;;;;;1.30;1.20;;;;;9.10;97272.80;;;;111034;1247;41150;-60
2022/09/20 01:04:29;;;;;;;2.20;1.30;;;;;9.10;97264.20;;;;110986;1247;41163;-59
2022/09/20 01:07:01;;;;;;;1.80;1.30;;;;;9.00;97258.80;;;;111030;1248;41903;-59
2022/09/20 01:09:33;;;;;;;1.30;1.20;;;;;8.96;97250.40;;;;111058;1247;41273;-60
2022/09/20 01:12:08;;;;;;;1.20;1.10;;;;;8.90;97251.80;;;;111087;1247;41152;-59
2022/09/20 01:14:38;;;;;;;1.30;1.20;;;;;8.82;97253.00;;;;111103;1248;42019;-60
2022/09/20 01:17:08;;;;;;;1.30;1.20;;;;;8.80;97244.20;;;;111116;1247;41200;-60
2022/09/20 01:19:58;;;;;;;1.30;1.20;;;;;8.80;97238.80;;;;111064;1247;41198;-60
2022/09/20 01:22:54;;;;;;;1.20;1.20;;;;;8.70;97242.80;;;;111069;1247;41591;-61
2022/09/20 01:25:52;;;;;;;1.20;1.20;;;;;8.60;97241.00;;;;111123;1248;41136;-59
2022/09/20 01:28:22;;;;;;;1.10;1.10;;;;;8.60;97231.20;;;;111146;1248;41158;-59
2022/09/20 01:31:24;;;;;;;1.20;1.20;;;;;8.60;97236.60;;;;110995;1248;41528;-59
2022/09/20 01:34:00;;;;;;;1.40;1.30;;;;;8.60;97234.00;;;;111022;1248;41165;-60
2022/09/20 01:36:54;;;;;;;2.80;1.40;;;;;8.60;97230.40;;;;111112;1248;40740;-60
2022/09/20 01:39:32;;;;;;;1.30;1.20;;;;;8.56;97229.40;;;;111043;1248;41988;-59
2022/09/20 01:42:05;;;;;;;1.30;1.20;;;;;8.50;97235.20;;;;111136;1247;41143;-60
2022/09/20 01:45:03;;;;;;;1.30;1.10;;;;;8.40;97236.00;;;;110937;1249;41316;-58
2022/09/20 01:47:48;;;;;;;1.30;1.20;;;;;8.30;97242.40;;;;111042;1247;42221;-60
2022/09/20 01:50:39;;;;;;;1.10;1.10;;;;;8.30;97242.20;;;;111076;1247;41411;-60
2022/09/20 01:53:08;;;;;;;;;;;;;8.30;97248.00;;;;110670;1248;41965;-60
2022/09/20 01:55:51;;;;;;;1.10;1.10;;;;;8.24;97248.00;;;;110507;1249;367328;-60
2022/09/20 01:58:22;;;;;;;1.60;1.30;;;;;8.30;97254.00;;;;111044;1247;41150;-60
2022/09/20 02:01:22;;;;;;;1.30;1.20;;;;;8.30;97257.20;;;;111174;1247;41760;-61
2022/09/20 02:04:04;;;;;;;20.60;3.10;;;;;8.30;97258.20;;;;111080;1247;41152;-60
2022/09/20 02:06:48;;;;;;;2.30;1.60;;;;;8.30;97257.80;;;;111109;1248;41155;-62
2022/09/20 02:09:26;;;;;;;2.00;1.30;;;;;8.30;97250.00;;;;111122;1247;41140;-60
2022/09/20 02:12:30;;;;;;;1.40;1.30;;;;;8.30;97247.80;;;;111212;1249;41309;-60
2022/09/20 02:15:22;;;;;;;1.80;1.20;;;;;8.30;97256.00;;;;111061;1249;41650;-60
2022/09/20 02:18:15;;;;;;;1.40;1.30;;;;;8.30;97261.20;;;;110702;1249;41817;-58
2022/09/20 02:20:47;;;;;;;1.40;1.30;;;;;8.40;97254.80;;;;111068;1247;41252;-60
2022/09/20 02:23:21;;;;;;;1.40;1.30;;;;;8.40;97258.80;;;;111048;1247;41262;-62
2022/09/20 02:25:56;;;;;;;1.30;1.20;;;;;8.40;97261.40;;;;111129;1248;41153;-59
2022/09/20 02:28:51;;;;;;;1.80;1.30;;;;;8.40;97260.60;;;;110945;1249;41263;-61
2022/09/20 02:31:23;;;;;;;1.40;1.20;;;;;8.48;97263.40;;;;110945;1248;41254;-60
2022/09/20 02:34:01;;;;;;;1.10;1.10;;;;;8.50;97269.20;;;;111068;1248;41721;-60
2022/09/20 02:36:58;;;;;;;1.30;1.20;;;;;8.50;97270.60;;;;111066;1247;41260;-61
2022/09/20 02:39:37;;;;;;;1.50;1.10;;;;;8.56;97263.00;;;;111081;1248;41695;-60
2022/09/20 02:42:20;;;;;;;1.30;1.20;;;;;8.60;97263.20;;;;110951;1248;42376;-60
2022/09/20 02:45:19;;;;;;;1.20;1.10;;;;;8.60;97264.80;;;;111028;1249;41141;-60
2022/09/20 02:47:49;;;;;;;1.60;1.20;;;;;8.60;97261.20;;;;111132;1248;41658;-59
2022/09/20 02:50:21;;;;;;;1.40;1.30;;;;;8.60;97259.60;;;;111079;1248;41142;-60
2022/09/20 02:52:51;;;;;;;1.80;1.30;;;;;8.66;97267.80;;;;111013;1249;42349;-60
2022/09/20 02:55:51;;;;;;;1.50;1.30;;;;;8.70;97264.20;;;;111026;1249;41136;-59
2022/09/20 02:58:45;;;;;;;1.30;1.20;;;;;8.70;97256.80;;;;111104;1248;41222;-59
2022/09/20 03:01:30;;;;;;;1.70;1.40;;;;;8.70;97266.80;;;;111017;1248;41269;-60
2022/09/20 03:04:02;;;;;;;1.40;1.30;;;;;8.70;97264.80;;;;111147;1248;41272;-60
2022/09/20 03:06:42;;;;;;;1.30;1.20;;;;;8.60;97266.00;;;;110776;1247;41576;-59
2022/09/20 03:09:25;;;;;;;1.30;1.20;;;;;8.60;97266.20;;;;110856;1249;41927;-59
2022/09/20 03:12:30;;;;;;;3.70;1.40;;;;;8.60;97269.60;;;;110950;1247;41266;-60
2022/09/20 03:15:09;;;;;;;1.30;1.20;;;;;8.60;97271.60;;;;110541;1255;41178;-60
2022/09/20 03:17:49;;;;;;;1.50;1.30;;;;;8.50;97270.80;;;;110884;1248;41144;-59
2022/09/20 03:20:28;;;;;;;1.20;1.20;;;;;8.50;97276.80;;;;110981;1249;41516;-60
2022/09/20 03:23:20;;;;;;;1.40;1.30;;;;;8.42;97271.00;;;;111089;1249;41616;-61
2022/09/20 03:26:03;;;;;;;2.80;1.40;;;;;8.40;97274.80;;;;111107;1247;41136;-60
2022/09/20 03:28:38;;;;;;;1.40;1.30;;;;;8.40;97272.00;;;;111050;1249;41161;-60
2022/09/20 03:31:34;;;;;;;2.30;1.50;;;;;8.36;97278.00;;;;111117;1248;41316;-60
2022/09/20 03:34:16;;;;;;;2.20;1.40;;;;;8.30;97274.20;;;;111073;1247;42388;-60
2022/09/20 03:37:00;;;;;;;2.60;1.50;;;;;8.30;97284.20;;;;111137;1248;41259;-60
2022/09/20 03:39:58;;;;;;;1.40;1.30;;;;;8.20;97282.20;;;;111069;1248;41121;-61
2022/09/20 03:42:30;;;;;;;1.60;1.40;;;;;8.20;97285.80;;;;111122;1247;41145;-61
2022/09/20 03:45:22;;;;;;;1.40;1.30;;;;;8.20;97285.40;;;;110973;1247;41142;-60
2022/09/20 03:48:23;;;;;;;4.30;1.30;;;;;8.20;97288.80;;;;111170;1247;41152;-60
2022/09/20 03:51:14;;;;;;;2.10;1.50;;;;;8.20;97290.20;;;;111060;1247;41140;-59
2022/09/20 03:54:04;;;;;;;1.90;1.40;;;;;8.20;97290.80;;;;111047;1247;42391;-60
2022/09/20 03:56:34;;;;;;;;;;;;;8.20;97291.80;;;;111208;1247;41942;-60
2022/09/20 03:59:35;;;;;;;1.20;1.20;;;;;8.20;97289.80;;;;111303;1247;41581;-61
2022/09/20 04:02:20;;;;;;;2.60;1.60;;;;;8.24;97294.40;;;;111290;1247;41144;-61
2022/09/20 04:05:15;;;;;;;2.30;1.40;;;;;8.20;97289.80;;;;111128;1247;41149;-61
2022/09/20 04:08:17;;;;;;;1.90;1.40;;;;;8.22;97290.00;;;;111108;1248;41259;-61
2022/09/20 04:10:53;;;;;;;2.40;1.60;;;;;8.28;97291.20;;;;111105;1247;41237;-61
2022/09/20 04:13:38;;;;;;;3.80;1.90;;;;;8.30;97296.40;;;;111187;1249;41465;-61
2022/09/20 04:16:31;;;;;;;2.70;1.60;;;;;8.30;97300.60;;;;111269;1247;41140;-60
2022/09/20 04:19:08;;;;;;;1.80;1.40;;;;;8.30;97304.60;;;;111334;1248;41324;-60
2022/09/20 04:21:43;;;;;;;3.60;1.60;;;;;8.36;97309.40;;;;111393;1248;41146;-60
2022/09/20 04:24:36;;;;;;;4.00;1.70;;;;;8.40;97309.20;;;;111150;1248;41144;-60
2022/09/20 04:27:13;;;;;;;2.50;1.50;;;;;8.40;97311.60;;;;111134;1248;41619;-59
2022/09/20 04:30:06;;;;;;;2.90;1.50;;;;;8.50;97312.80;;;;111112;1247;41267;-61
2022/09/20 04:32:51;;;;;;;1.90;1.50;;;;;8.50;97314.00;;;;111113;1247;41307;-60
2022/09/20 04:38:34;;;;;;;2.10;1.50;;;;;8.60;97318.60;;;;110994;1249;41264;-59
2022/09/20 04:41:08;;;;;;;2.20;1.60;;;;;8.60;97315.40;;;;110911;1247;41609;-60
2022/09/20 04:44:10;;;;;;;2.90;1.60;;;;;8.60;97315.20;;;;110995;1247;41923;-60
2022/09/20 04:47:01;;;;;;;5.00;1.60;;;;;8.66;97319.00;;;;111169;1249;41245;-60
2022/09/20 04:49:44;;;;;;;2.50;1.60;;;;;8.60;97317.40;;;;110925;1248;41133;-62
2022/09/20 04:52:16;;;;;;;5.00;2.10;;;;;8.60;97316.40;;;;110901;1247;41333;-61
2022/09/20 04:55:15;;;;;;;3.00;1.70;;;;;8.64;97314.80;;;;110864;1249;41246;-61
2022/09/20 04:58:03;;;;;;;3.70;1.80;;;;;8.60;97325.00;;;;110969;1249;41329;-61
2022/09/20 05:00:55;;;;;;;2.60;1.70;;;;;8.60;97324.80;;;;111026;1248;41444;-60
2022/09/20 05:03:45;;;;;;;4.00;1.70;;;;;8.50;97321.60;;;;110828;1250;41171;-61
2022/09/20 05:06:43;;;;;;;2.70;1.60;;;;;8.50;97325.00;;;;111050;1248;41294;-60
2022/09/20 05:09:27;;;;;;;3.50;1.80;;;;;8.50;97328.80;;;;110965;1249;41796;-59
2022/09/20 05:12:19;;;;;;;2.30;1.50;;;;;8.50;97327.40;;;;110979;1248;41149;-60
2022/09/20 05:15:11;;;;;;;2.90;1.70;;;;;8.60;97328.00;;;;110942;1247;41320;-60
2022/09/20 05:17:59;;;;;;;2.20;1.60;;;;;8.60;97327.40;;;;110970;1247;41260;-60
2022/09/20 05:21:04;;;;;;;4.40;1.80;;;;;8.70;97332.40;;;;110836;1247;41376;-59
2022/09/20 05:23:50;;;;;;;3.80;1.80;;;;;8.70;97332.80;;;;111105;1248;41157;-60
2022/09/20 05:26:47;;;;;;;3.30;1.80;;;;;8.70;97335.80;;;;110987;1249;41136;-61
2022/09/20 05:29:25;;;;;;;2.60;1.60;;;;;8.76;97332.80;;;;110997;1247;41564;-65
2022/09/20 05:31:57;;;;;;;3.10;1.70;;;;;8.80;97329.00;;;;110965;1248;42002;-61
2022/09/20 05:34:43;;;;;;;4.20;1.90;;;;;8.80;97329.60;;;;110905;1249;41485;-60
2022/09/20 05:37:28;;;;;;;5.00;1.80;;;;;8.90;97329.80;;;;110852;1248;42188;-61
2022/09/20 05:40:12;;;;;;;5.40;2.00;;;;;8.90;97331.20;;;;110958;1249;41699;-60
2022/09/20 05:42:53;;;;;;;3.30;1.90;;;;;8.92;97329.00;;;;110970;1249;41516;-59
2022/09/20 05:45:31;;;;;;;5.20;2.20;;;;;8.90;97332.20;;;;110955;1249;41257;-60
2022/09/20 05:48:11;;;;;;;5.20;2.20;;;;;9.00;97331.20;;;;110894;1248;41139;-60
2022/09/20 05:51:05;;;;;;;5.60;2.50;;;;;9.00;97329.00;;;;110910;1249;41255;-59
2022/09/20 05:54:00;;;;;;;6.60;2.30;;;;;9.10;97330.20;;;;111024;1248;41126;-61
2022/09/20 05:57:00;;;;;;;3.90;2.10;;;;;9.20;97327.00;;;;111025;1249;41599;-61
2022/09/20 05:59:39;;;;;;;4.20;2.00;;;;;9.30;97327.40;;;;110996;1248;41142;-60
2022/09/20 06:02:26;;;;;;;4.20;2.10;;;;;9.40;97334.40;;;;111037;1249;41141;-60
2022/09/20 06:05:03;;;;;;;5.90;2.20;;;;;9.50;97334.00;;;;110878;1247;42438;-60
2022/09/20 06:07:48;;;;;;;4.70;2.20;;;;;9.56;97337.60;;;;111153;1247;41271;-60
2022/09/20 06:10:20;;;;;;;5.20;2.20;;;;;9.52;97338.20;;;;111498;1247;41180;-60
2022/09/20 06:13:14;;;;;;;6.70;2.40;;;;;9.60;97336.80;;;;111233;1249;41136;-60
2022/09/20 06:16:03;;;;;;;4.50;2.10;;;;;9.50;97343.60;;;;111028;1248;41252;-61
2022/09/20 06:19:05;;;;;;;3.80;2.00;;;;;9.50;97347.00;;;;110852;1249;41135;-59
2022/09/20 06:21:44;;;;;;;5.90;2.40;;;;;9.50;97339.40;;;;110887;1248;41180;-58
2022/09/20 06:25:06;;;;;;;5.70;2.50;;;;;9.50;97345.40;;;;111098;1248;41260;-60
2022/09/20 06:27:58;;;;;;;5.50;2.20;;;;;9.60;97343.40;;;;110791;1254;41274;-60
2022/09/20 06:30:33;;;;;;;5.20;2.10;;;;;9.68;97343.80;;;;110762;1249;41894;-59
2022/09/20 06:33:11;;;;;;;7.50;2.50;;;;;9.80;97347.40;;;;110684;1249;41251;-60
2022/09/20 06:42:05;;;;;;;15.90;2.40;;;;;10.20;97343.40;;;;111109;1249;41157;-61
2022/09/20 06:44:40;;;;;;;5.40;2.20;;;;;10.30;97338.20;;;;111108;1249;41133;-60
2022/09/20 06:47:10;;;;;;;5.60;2.20;;;;;10.40;97339.00;;;;111362;1248;42420;-64
2022/09/20 06:49:41;;;;;;;;;;;;;10.44;97340.80;;;;111069;1248;41760;-63
2022/09/20 06:52:15;;;;;;;5.50;2.00;;;;;10.60;97341.60;;;;111025;1249;41191;-62
2022/09/20 06:54:47;;;;;;;4.30;2.20;;;;;10.76;97341.40;;;;110899;1249;41845;-63
2022/09/20 06:57:36;;;;;;;5.70;2.30;;;;;10.72;97341.20;;;;110722;1248;41254;-62
2022/09/20 07:00:15;;;;;;;6.30;2.20;;;;;10.80;97338.20;;;;110881;1250;41897;-62
2022/09/20 07:02:55;;;;;;;6.60;2.40;;;;;10.90;97340.40;;;;110922;1248;41379;-63
2022/09/20 07:05:30;;;;;;;5.50;2.30;;;;;10.94;97341.60;;;;110920;1248;41256;-63
2022/09/20 07:08:07;;;;;;;6.30;2.50;;;;;10.94;97344.40;;;;111000;1250;41184;-63
2022/09/20 07:10:42;;;;;;;5.20;2.30;;;;;11.20;97344.20;;;;110938;1250;42716;-63
2022/09/20 07:13:22;;;;;;;5.50;2.30;;;;;11.30;97347.00;;;;110925;1250;41621;-63
2022/09/20 07:16:07;;;;;;;6.50;2.20;;;;;11.42;97342.60;;;;110979;1249;41488;-63
2022/09/20 07:18:41;;;;;;;6.10;2.20;;;;;11.60;97346.20;;;;110899;1250;41427;-64
2022/09/20 07:21:18;;;;;;;6.10;2.40;;;;;11.62;97348.20;;;;111051;1250;41152;-63
2022/09/20 07:23:53;;;;;;;8.40;2.60;;;;;11.82;97335.80;;;;110912;1250;41268;-64
2022/09/20 07:26:30;;;;;;;5.80;2.30;;;;;13.26;97329.20;;;;110959;1248;41607;-62
2022/09/20 07:29:09;;;;;;;9.50;2.60;;;;;14.74;97321.00;;;;110986;1247;41267;-62
2022/09/20 07:31:44;;;;;;;11.70;3.30;;;;;14.98;97327.20;;;;110844;1249;41298;-61
2022/09/20 07:34:25;;;;;;;8.00;2.80;;;;;14.94;97330.60;;;;110874;1250;41996;-62
2022/09/20 07:37:10;;;;;;;6.50;2.60;;;;;14.44;97339.00;;;;110926;1249;42374;-63
2022/09/20 07:39:45;;;;;;;5.70;2.30;;;;;13.90;97337.00;;;;111015;1250;41130;-63
2022/09/20 07:42:20;;;;;;;4.20;2.00;;;;;13.60;97347.00;;;;110978;1249;41171;-62
2022/09/20 07:45:08;;;;;;;7.80;2.40;;;;;13.34;97347.00;;;;110949;1249;41730;-62
2022/09/20 07:47:45;;;;;;;5.20;2.00;;;;;13.20;97352.00;;;;110881;1250;41133;-64
2022/09/20 07:50:27;;;;;;;3.60;1.80;;;;;13.20;97349.00;;;;110846;1248;42547;-62
2022/09/20 07:53:03;;;;;;;4.40;1.90;;;;;13.20;97349.40;;;;110975;1249;41772;-61
2022/09/20 07:55:41;;;;;;;6.40;2.50;;;;;13.20;97352.20;;;;110976;1250;40948;-62
2022/09/20 07:58:17;;;;;;;5.40;2.30;;;;;13.00;97349.60;;;;111012;1249;41272;-62
2022/09/20 08:00:54;;;;;;;3.40;1.80;;;;;12.74;97355.20;;;;111522;1248;41272;-62
2022/09/20 08:03:23;;;;;;;4.10;1.90;;;;;12.60;97359.00;;;;111040;1247;41936;-63
2022/09/20 08:05:59;;;;;;;5.60;2.10;;;;;12.58;97353.80;;;;111335;1248;41158;-64
2022/09/20 08:08:30;;;;;;;4.80;2.00;;;;;12.60;97350.20;;;;111282;1249;41721;-62
2022/09/20 08:11:05;;;;;;;5.40;2.50;;;;;13.14;97337.00;;;;111011;1249;41151;-62
2022/09/20 08:13:42;;;;;;;4.10;1.90;;;;;13.90;97340.20;;;;110892;1248;41143;-64
2022/09/20 08:16:31;;;;;;;6.80;2.70;;;;;14.70;97337.60;;;;111131;1249;41255;-63
2022/09/20 08:19:01;;;;;;;5.20;2.20;;;;;14.90;97330.60;;;;110775;1249;41277;-63
2022/09/20 08:21:32;;;;;;;4.20;1.80;;;;;14.60;97329.80;;;;110870;1249;41161;-63
2022/09/20 08:24:03;;;;;;;3.60;1.80;;;;;14.60;97332.80;;;;111043;1248;41254;-63
2022/09/20 08:26:42;;;;;;;3.00;1.70;;;;;14.60;97330.20;;;;110931;1249;41138;-62
2022/09/20 08:29:11;;;;;;;4.10;1.80;;;;;14.60;97332.00;;;;111088;1247;42415;-62
2022/09/20 08:31:41;;;;;;;3.60;1.80;;;;;14.32;97341.20;;;;111035;1248;41135;-62
2022/09/20 08:34:12;;;;;;;6.70;1.90;;;;;14.20;97341.40;;;;111052;1248;41601;-62
2022/09/20 08:36:46;;;;;;;4.50;2.10;;;;;14.02;97339.40;;;;111148;1247;41150;-64
2022/09/20 08:39:15;;;;;;;4.00;2.00;;;;;13.80;97341.00;;;;111075;1247;41168;-63
2022/09/20 08:42:13;;;;;;;5.70;2.00;;;;;13.70;97343.80;;;;111098;1249;41245;-63
2022/09/20 08:44:59;;;;;;;4.20;2.00;;;;;13.60;97346.60;;;;110814;1249;41960;-63
2022/09/20 08:47:37;;;;;;;4.00;1.80;;;;;13.60;97341.40;;;;111096;1248;41174;-63
2022/09/20 08:50:09;;;;;;;3.80;1.80;;;;;13.50;97340.00;;;;111098;1248;41153;-63
2022/09/20 08:52:40;;;;;;;4.30;1.90;;;;;13.50;97339.60;;;;111027;1249;41407;-62
2022/09/20 08:55:15;;;;;;;6.60;2.00;;;;;13.60;97339.20;;;;110786;1251;41963;-62
2022/09/20 08:57:50;;;;;;;4.00;1.80;;;;;13.60;97334.80;;;;111101;1248;41352;-62
2022/09/20 09:00:21;;;;;;;4.30;1.70;;;;;14.02;97318.20;;;;110995;1248;41613;-63
2022/09/20 09:02:54;;;;;;;2.80;1.60;;;;;15.70;97309.00;;;;111129;1247;41261;-63
2022/09/20 09:05:33;;;;;;;2.60;1.60;;;;;17.22;97308.20;;;;111142;1248;41211;-65
2022/09/20 09:08:17;;;;;;;2.50;1.50;;;;;17.30;97315.00;;;;111042;1249;42331;-63
2022/09/20 09:10:58;;;;;;;2.80;1.60;;;;;16.94;97319.60;;;;111113;1249;41328;-62
2022/09/20 09:14:46;;;;;;;3.20;1.70;;;;;16.78;97320.60;;;;111138;1249;41177;-62
2022/09/20 09:16:54;;;;;;;3.50;1.50;;;;;16.56;97319.40;;;;110917;1249;41561;-63
2022/09/20 09:19:28;;;;;;;1.70;1.30;;;;;16.50;97319.80;;;;110989;1249;41366;-63
2022/09/20 09:22:03;;;;;;;2.80;1.40;;;;;16.20;97325.40;;;;111036;1247;41252;-63
2022/09/20 09:24:32;;;;;;;3.50;1.70;;;;;16.00;97331.80;;;;111076;1249;41229;-62
2022/09/20 09:27:16;;;;;;;4.00;1.80;;;;;15.80;97332.40;;;;110855;1249;41253;-61
2022/09/20 09:29:50;;;;;;;3.90;1.90;;;;;15.50;97335.40;;;;110849;1249;41252;-63
2022/09/20 09:32:27;;;;;;;4.10;1.60;;;;;15.30;97331.00;;;;111110;1249;41904;-62
2022/09/20 09:35:28;;;;;;;2.40;1.60;;;;;15.20;97334.80;;;;110978;1249;41152;-62
2022/09/20 09:38:01;;;;;;;5.60;1.70;;;;;15.46;97314.00;;;;111041;1249;41828;-62
2022/09/20 09:40:30;;;;;;;3.00;1.50;;;;;16.30;97319.60;;;;111080;1249;41155;-63
2022/09/20 09:43:01;;;;;;;3.70;1.60;;;;;16.60;97311.00;;;;110887;1249;41618;-62
2022/09/20 09:45:37;;;;;;;2.60;1.50;;;;;16.70;97317.60;;;;110959;1248;41300;-63
2022/09/20 09:48:27;;;;;;;4.00;1.70;;;;;16.70;97316.20;;;;111005;1249;41254;-62
2022/09/20 09:51:09;;;;;;;3.60;1.70;;;;;16.70;97319.80;;;;111139;1248;41431;-63
2022/09/20 09:53:38;;;;;;;4.30;1.90;;;;;16.02;97318.20;;;;111098;1249;41146;-62
2022/09/20 09:56:16;;;;;;;3.90;1.70;;;;;15.60;97322.00;;;;111071;1247;41118;-62
2022/09/20 09:59:11;;;;;;;5.10;2.10;;;;;15.50;97324.40;;;;111010;1249;42214;-62
2022/09/20 10:01:48;;;;;;;4.80;2.10;;;;;15.44;97326.20;;;;110987;1248;43022;-62
2022/09/20 10:04:40;;;;;;;4.60;2.00;;;;;15.40;97330.20;;;;111001;1249;41770;-62
2022/09/20 10:07:16;;;;;;;5.10;2.30;;;;;15.20;97332.60;;;;110757;1248;41144;-62
2022/09/20 10:10:24;;;;;;;5.10;2.00;;;;;15.36;97329.40;;;;111018;1247;41253;-62
2022/09/20 10:13:07;;;;;;;8.00;2.20;;;;;15.30;97322.80;;;;111039;1249;41297;-64
2022/09/20 10:16:05;;;;;;;6.80;2.60;;;;;15.26;97323.60;;;;111118;1248;41127;-63
2022/09/20 10:18:52;;;;;;;6.80;2.10;;;;;15.30;97323.80;;;;110901;1247;41185;-62
2022/09/20 10:21:47;;;;;;;4.80;2.20;;;;;15.18;97321.20;;;;111031;1247;41128;-62
2022/09/20 10:24:19;;;;;;;3.10;1.70;;;;;15.32;97322.20;;;;111135;1247;41165;-61
2022/09/20 10:27:25;;;;;;;2.70;1.60;;;;;15.58;97324.60;;;;111082;1248;41162;-62
2022/09/20 10:30:20;;;;;;;3.00;1.60;;;;;16.24;97319.00;;;;110866;1249;41264;-62
2022/09/20 10:33:07;;;;;;;4.10;1.70;;;;;16.68;97318.00;;;;111046;1247;42341;-62
2022/09/20 10:35:44;;;;;;;4.50;2.00;;;;;17.14;97314.00;;;;111020;1249;41253;-63
2022/09/20 10:38:24;;;;;;;3.40;1.80;;;;;17.20;97315.40;;;;111220;1249;41128;-62
2022/09/20 10:44:08;;;;;;;3.70;1.90;;;;;18.26;97312.60;;;;111241;1247;42267;-63
2022/09/20 10:46:50;;;;;;;4.10;1.60;;;;;18.32;97309.60;;;;111235;1248;42410;-62
2022/09/20 10:49:22;;;;;;;1.90;1.50;;;;;18.10;97315.20;;;;111070;1248;41237;-63
2022/09/20 10:51:59;;;;;;;3.10;1.50;;;;;17.90;97314.20;;;;111085;1249;41615;-62
2022/09/20 10:55:05;;;;;;;3.60;1.80;;;;;17.44;97317.60;;;;111073;1248;41150;-62
2022/09/20 10:57:44;;;;;;;2.40;1.40;;;;;17.10;97320.60;;;;110880;1249;41140;-62
2022/09/20 11:00:23;;;;;;;3.80;1.70;;;;;16.80;97329.80;;;;111039;1249;41153;-62
2022/09/20 11:03:12;;;;;;;9.70;3.10;;;;;16.60;97328.00;;;;110989;1249;41127;-63
2022/09/20 11:06:05;;;;;;;6.60;2.20;;;;;16.40;97334.40;;;;110646;1249;41304;-63
2022/09/20 11:08:37;;;;;;;8.40;3.00;;;;;16.10;97342.20;;;;111115;1249;41127;-62
2022/09/20 11:11:12;;;;;;;7.90;3.30;;;;;15.98;97335.20;;;;111400;1249;41078;-62
2022/09/20 11:13:51;;;;;;;15.60;5.40;;;;;16.20;97331.60;;;;111133;1249;41586;-62
2022/09/20 11:16:28;;;;;;;7.20;2.70;;;;;16.54;97330.00;;;;111135;1248;41111;-62
2022/09/20 11:19:25;;;;;;;12.30;4.20;;;;;17.16;97323.20;;;;111031;1249;41181;-63
2022/09/20 11:22:09;;;;;;;9.80;2.70;;;;;18.16;97326.00;;;;110794;1248;41195;-61
2022/09/20 11:24:44;;;;;;;13.00;4.30;;;;;18.58;97321.00;;;;111093;1249;42410;-62
2022/09/20 11:27:22;;;;;;;13.20;4.70;;;;;19.30;97319.20;;;;110734;1248;41162;-62
2022/09/20 11:30:02;;;;;;;13.00;4.40;;;;;19.94;97305.20;;;;111054;1249;41149;-62
2022/09/20 11:32:38;;;;;;;4.80;1.80;;;;;20.54;97309.60;;;;111091;1248;41151;-62
2022/09/20 11:35:10;;;;;;;2.10;1.30;;;;;20.58;97303.60;;;;111091;1249;42568;-61
2022/09/20 11:37:42;;;;;;;1.90;1.20;;;;;20.90;97305.20;;;;111112;1249;42896;-62
2022/09/20 11:40:12;;;;;;;2.10;1.20;;;;;20.90;97302.40;;;;111011;1249;41155;-64
2022/09/20 11:42:41;;;;;;;2.90;1.50;;;;;20.72;97298.20;;;;111079;1248;41158;-63
2022/09/20 11:45:12;;;;;;;2.20;1.10;;;;;20.94;97287.20;;;;111193;1249;41142;-63
2022/09/20 11:47:46;;;;;;;1.30;0.90;;;;;21.80;97294.20;;;;110871;1249;41163;-63
2022/09/20 11:50:37;;;;;;;;;;;;;21.80;97292.00;;;;111065;1249;41297;-62
2022/09/20 11:53:34;;;;;;;1.80;1.10;;;;;21.38;97292.20;;;;110986;1249;41140;-62
2022/09/20 11:56:14;;;;;;;3.20;1.40;;;;;20.82;97291.80;;;;111008;1249;42021;-62
2022/09/20 11:58:47;;;;;;;1.40;1.20;;;;;20.20;97296.60;;;;111011;1247;41142;-63
2022/09/20 12:01:31;;;;;;;1.00;1.00;;;;;19.58;97293.20;;;;110862;1249;42251;-63
2022/09/20 12:04:17;;;;;;;1.30;1.00;;;;;20.32;97287.00;;;;110771;1249;41959;-63
2022/09/20 12:07:05;;;;;;;1.00;1.00;;;;;21.98;97279.60;;;;111017;1249;41299;-62
2022/09/20 12:09:41;;;;;;;1.30;1.10;;;;;23.72;97264.00;;;;111049;1248;41262;-62
2022/09/20 12:12:32;;;;;;;1.90;1.00;;;;;23.88;97275.60;;;;110785;1249;41265;-62
2022/09/20 12:27:55;;;;;;;2.30;0.90;;;;;21.44;97287.00;;;;107431;1286;581605;-62
2022/09/20 12:30:24;;;;;;;2.10;1.10;;;;;20.26;97304.40;;;;109834;1262;292070;-62
2022/09/20 12:32:56;;;;;;;1.90;1.10;;;;;19.78;97305.00;;;;110204;1260;41165;-63
2022/09/20 12:35:43;;;;;;;1.30;1.00;;;;;19.24;97307.20;;;;109904;1262;41607;-63
2022/09/20 12:38:16;;;;;;;1.10;1.00;;;;;19.00;97303.20;;;;110142;1260;41169;-63
2022/09/20 12:41:21;;;;;;;2.40;1.30;;;;;19.58;97299.60;;;;110127;1261;41257;-63
2022/09/20 12:44:05;;;;;;;2.00;1.30;;;;;20.94;97295.60;;;;109054;1265;42371;-63
2022/09/20 12:46:41;;;;;;;2.60;1.20;;;;;20.58;97293.80;;;;110033;1262;42224;-62
2022/09/20 12:55:40;;;;;;;2.90;1.50;;;;;18.66;97308.00;;;;110309;1260;41074;-62
2022/09/20 12:58:12;;;;;;;1.30;1.10;;;;;18.50;97303.20;;;;109950;1260;42459;-61
2022/09/20 13:00:47;;;;;;;1.80;1.20;;;;;18.36;97313.20;;;;110144;1260;42063;-63
2022/09/20 13:03:40;;;;;;;2.40;1.40;;;;;17.96;97319.20;;;;109973;1261;41205;-65
2022/09/20 13:06:11;;;;;;;2.90;1.30;;;;;17.70;97325.80;;;;110044;1260;42080;-63
2022/09/20 13:09:03;;;;;;;1.50;1.30;;;;;17.80;97325.00;;;;109944;1260;41284;-63
2022/09/20 13:11:55;;;;;;;2.20;1.30;;;;;17.50;97331.60;;;;109937;1260;42005;-62
2022/09/20 13:14:33;;;;;;;1.40;1.20;;;;;17.10;97331.40;;;;109957;1261;41271;-62
2022/09/20 13:17:06;;;;;;;1.90;1.10;;;;;16.88;97336.60;;;;110473;1251;41149;-62
2022/09/20 13:19:40;;;;;;;2.80;1.30;;;;;16.80;97338.60;;;;110567;1254;41155;-62
2022/09/20 13:22:27;;;;;;;1.50;1.20;;;;;16.62;97332.80;;;;110603;1250;42248;-62
2022/09/20 13:24:58;;;;;;;2.10;1.30;;;;;16.30;97335.40;;;;110665;1254;41730;-62
2022/09/20 13:27:33;;;;;;;2.70;1.30;;;;;16.20;97334.00;;;;110586;1254;41167;-62
2022/09/20 13:30:22;;;;;;;2.10;1.30;;;;;16.60;97334.80;;;;110615;1254;41261;-62
2022/09/20 13:32:51;;;;;;;1.90;1.10;;;;;17.12;97329.60;;;;110593;1254;41763;-62
2022/09/20 13:35:20;;;;;;;1.80;1.30;;;;;17.74;97334.20;;;;110680;1252;41596;-63
2022/09/20 13:37:52;;;;;;;3.50;1.20;;;;;18.38;97321.60;;;;110647;1254;41938;-62
2022/09/20 13:40:24;;;;;;;1.20;1.10;;;;;18.84;97325.40;;;;110589;1254;41193;-62
2022/09/20 13:42:54;;;;;;;1.20;1.10;;;;;19.26;97322.40;;;;110450;1254;41933;-62
2022/09/20 13:45:43;;;;;;;1.80;1.30;;;;;18.88;97323.20;;;;110416;1254;41747;-62
2022/09/20 13:48:15;;;;;;;1.50;0.90;;;;;18.92;97322.80;;;;110595;1254;41402;-62
2022/09/20 13:50:44;;;;;;;1.00;1.00;;;;;19.30;97319.40;;;;110481;1254;41942;-62
2022/09/20 13:53:17;;;;;;;1.10;1.00;;;;;19.46;97316.20;;;;110588;1254;41982;-63
2022/09/20 13:56:25;;;;;;;1.20;1.00;;;;;19.36;97319.60;;;;110542;1254;41860;-63